sensor_id;sensor_type;location;lat;lon;timestamp;P1;durP1;ratioP1;P2;durP2;ratioP2
10269;SDS011;70826;50.930;5.334;2024-03-08T00:01:23;108.68;;;102.32;;
10269;SDS011;70826;50.930;5.334;2024-03-08T00:03:49;103.90;;;97.78;;
10269;SDS011;70826;50.930;5.334;2024-03-08T00:06:17;106.47;;;100.18;;
10269;SDS011;70826;50.930;5.334;2024-03-08T00:08:45;104.75;;;98.55;;
10269;SDS011;70826;50.930;5.334;2024-03-08T00:11:10;103.40;;;97.30;;
10269;SDS011;70826;50.930;5.334;2024-03-08T00:13:38;101.05;;;94.95;;
10269;SDS011;70826;50.930;5.334;2024-03-08T00:16:04;103.82;;;97.75;;
10269;SDS011;70826;50.930;5.334;2024-03-08T00:18:34;108.43;;;102.03;;
10269;SDS011;70826;50.930;5.334;2024-03-08T00:21:00;106.63;;;100.22;;
10269;SDS011;70826;50.930;5.334;2024-03-08T00:23:25;105.68;;;99.47;;
10269;SDS011;70826;50.930;5.334;2024-03-08T00:25:52;103.18;;;97.05;;
10269;SDS011;70826;50.930;5.334;2024-03-08T00:28:22;106.57;;;100.18;;
10269;SDS011;70826;50.930;5.334;2024-03-08T00:30:50;109.00;;;102.45;;
10269;SDS011;70826;50.930;5.334;2024-03-08T00:33:18;100.07;;;94.07;;
10269;SDS011;70826;50.930;5.334;2024-03-08T00:35:48;106.47;;;100.18;;
10269;SDS011;70826;50.930;5.334;2024-03-08T00:38:14;101.80;;;95.80;;
10269;SDS011;70826;50.930;5.334;2024-03-08T00:40:40;105.22;;;98.90;;
10269;SDS011;70826;50.930;5.334;2024-03-08T00:43:06;104.50;;;98.25;;
10269;SDS011;70826;50.930;5.334;2024-03-08T00:45:31;102.22;;;96.22;;
10269;SDS011;70826;50.930;5.334;2024-03-08T00:47:57;107.53;;;101.18;;
10269;SDS011;70826;50.930;5.334;2024-03-08T00:50:22;104.32;;;98.13;;
10269;SDS011;70826;50.930;5.334;2024-03-08T00:52:50;107.85;;;101.50;;
10269;SDS011;70826;50.930;5.334;2024-03-08T00:55:16;103.78;;;97.65;;
10269;SDS011;70826;50.930;5.334;2024-03-08T00:57:42;99.18;;;93.28;;
10269;SDS011;70826;50.930;5.334;2024-03-08T01:00:08;107.70;;;101.38;;
10269;SDS011;70826;50.930;5.334;2024-03-08T01:02:39;102.70;;;96.57;;
10269;SDS011;70826;50.930;5.334;2024-03-08T01:05:07;106.18;;;99.90;;
10269;SDS011;70826;50.930;5.334;2024-03-08T01:07:40;101.50;;;95.38;;
10269;SDS011;70826;50.930;5.334;2024-03-08T01:10:13;104.63;;;98.32;;
10269;SDS011;70826;50.930;5.334;2024-03-08T01:12:39;101.40;;;95.40;;
10269;SDS011;70826;50.930;5.334;2024-03-08T01:15:08;107.78;;;101.38;;
10269;SDS011;70826;50.930;5.334;2024-03-08T01:17:37;103.60;;;97.35;;
10269;SDS011;70826;50.930;5.334;2024-03-08T01:20:04;101.80;;;95.70;;
10269;SDS011;70826;50.930;5.334;2024-03-08T01:22:31;107.35;;;101.00;;
10269;SDS011;70826;50.930;5.334;2024-03-08T01:24:57;103.28;;;97.20;;
10269;SDS011;70826;50.930;5.334;2024-03-08T01:27:25;107.95;;;101.53;;
10269;SDS011;70826;50.930;5.334;2024-03-08T01:29:53;106.15;;;99.85;;
10269;SDS011;70826;50.930;5.334;2024-03-08T01:32:19;102.75;;;96.70;;
10269;SDS011;70826;50.930;5.334;2024-03-08T01:34:44;105.10;;;98.90;;
10269;SDS011;70826;50.930;5.334;2024-03-08T01:37:10;103.45;;;97.30;;
10269;SDS011;70826;50.930;5.334;2024-03-08T01:39:39;105.97;;;99.68;;
10269;SDS011;70826;50.930;5.334;2024-03-08T01:42:07;105.53;;;99.22;;
10269;SDS011;70826;50.930;5.334;2024-03-08T01:44:33;107.55;;;101.07;;
10269;SDS011;70826;50.930;5.334;2024-03-08T01:47:01;105.32;;;99.13;;
10269;SDS011;70826;50.930;5.334;2024-03-08T01:49:27;107.85;;;101.38;;
10269;SDS011;70826;50.930;5.334;2024-03-08T01:51:59;107.95;;;101.53;;
10269;SDS011;70826;50.930;5.334;2024-03-08T01:54:27;106.25;;;99.97;;
10269;SDS011;70826;50.930;5.334;2024-03-08T01:56:56;106.95;;;100.50;;
10269;SDS011;70826;50.930;5.334;2024-03-08T01:59:24;108.47;;;101.97;;
10269;SDS011;70826;50.930;5.334;2024-03-08T02:01:51;108.57;;;102.05;;
10269;SDS011;70826;50.930;5.334;2024-03-08T02:04:20;108.18;;;101.70;;
10269;SDS011;70826;50.930;5.334;2024-03-08T02:06:49;110.82;;;104.35;;
10269;SDS011;70826;50.930;5.334;2024-03-08T02:09:15;112.95;;;106.25;;
10269;SDS011;70826;50.930;5.334;2024-03-08T02:11:42;112.47;;;105.78;;
10269;SDS011;70826;50.930;5.334;2024-03-08T02:14:12;108.18;;;101.85;;
10269;SDS011;70826;50.930;5.334;2024-03-08T02:16:40;106.82;;;100.32;;
10269;SDS011;70826;50.930;5.334;2024-03-08T02:19:06;114.82;;;108.07;;
10269;SDS011;70826;50.930;5.334;2024-03-08T02:21:34;106.72;;;100.50;;
10269;SDS011;70826;50.930;5.334;2024-03-08T02:24:01;105.03;;;98.82;;
10269;SDS011;70826;50.930;5.334;2024-03-08T02:26:29;111.20;;;104.63;;
10269;SDS011;70826;50.930;5.334;2024-03-08T02:28:55;111.95;;;105.28;;
10269;SDS011;70826;50.930;5.334;2024-03-08T02:31:21;110.15;;;103.50;;
10269;SDS011;70826;50.930;5.334;2024-03-08T02:33:46;107.75;;;101.47;;
10269;SDS011;70826;50.930;5.334;2024-03-08T02:36:12;110.85;;;104.25;;
10269;SDS011;70826;50.930;5.334;2024-03-08T02:38:43;108.47;;;101.88;;
10269;SDS011;70826;50.930;5.334;2024-03-08T02:41:11;112.80;;;106.20;;
10269;SDS011;70826;50.930;5.334;2024-03-08T02:43:37;110.57;;;103.88;;
10269;SDS011;70826;50.930;5.334;2024-03-08T02:46:03;107.68;;;101.28;;
10269;SDS011;70826;50.930;5.334;2024-03-08T02:48:33;109.30;;;102.70;;
10269;SDS011;70826;50.930;5.334;2024-03-08T02:50:58;113.55;;;106.68;;
10269;SDS011;70826;50.930;5.334;2024-03-08T02:53:27;107.30;;;100.80;;
10269;SDS011;70826;50.930;5.334;2024-03-08T02:55:52;108.40;;;102.00;;
10269;SDS011;70826;50.930;5.334;2024-03-08T02:58:18;110.78;;;104.22;;
10269;SDS011;70826;50.930;5.334;2024-03-08T03:00:44;110.50;;;103.90;;
10269;SDS011;70826;50.930;5.334;2024-03-08T03:03:10;107.22;;;100.78;;
10269;SDS011;70826;50.930;5.334;2024-03-08T03:05:38;111.40;;;104.70;;
10269;SDS011;70826;50.930;5.334;2024-03-08T03:08:06;106.57;;;100.20;;
10269;SDS011;70826;50.930;5.334;2024-03-08T03:10:33;104.25;;;98.03;;
10269;SDS011;70826;50.930;5.334;2024-03-08T03:13:01;106.55;;;100.30;;
10269;SDS011;70826;50.930;5.334;2024-03-08T03:15:29;109.88;;;103.43;;
10269;SDS011;70826;50.930;5.334;2024-03-08T03:17:55;106.50;;;100.35;;
10269;SDS011;70826;50.930;5.334;2024-03-08T03:20:23;107.60;;;101.25;;
10269;SDS011;70826;50.930;5.334;2024-03-08T03:22:54;105.45;;;99.25;;
10269;SDS011;70826;50.930;5.334;2024-03-08T03:25:21;108.63;;;102.20;;
10269;SDS011;70826;50.930;5.334;2024-03-08T03:28:00;111.07;;;104.47;;
10269;SDS011;70826;50.930;5.334;2024-03-08T03:30:28;112.13;;;105.43;;
10269;SDS011;70826;50.930;5.334;2024-03-08T03:32:58;108.72;;;102.22;;
10269;SDS011;70826;50.930;5.334;2024-03-08T03:35:31;107.70;;;101.18;;
10269;SDS011;70826;50.930;5.334;2024-03-08T03:37:59;114.13;;;107.32;;
10269;SDS011;70826;50.930;5.334;2024-03-08T03:40:39;107.07;;;100.70;;
10269;SDS011;70826;50.930;5.334;2024-03-08T03:43:06;108.68;;;102.25;;
10269;SDS011;70826;50.930;5.334;2024-03-08T03:45:34;111.22;;;104.65;;
10269;SDS011;70826;50.930;5.334;2024-03-08T03:48:04;106.82;;;100.50;;
10269;SDS011;70826;50.930;5.334;2024-03-08T03:50:31;109.45;;;102.93;;
10269;SDS011;70826;50.930;5.334;2024-03-08T03:52:59;111.13;;;104.60;;
10269;SDS011;70826;50.930;5.334;2024-03-08T03:55:25;107.22;;;100.85;;
10269;SDS011;70826;50.930;5.334;2024-03-08T03:57:52;109.93;;;103.28;;
10269;SDS011;70826;50.930;5.334;2024-03-08T04:00:17;108.47;;;101.85;;
10269;SDS011;70826;50.930;5.334;2024-03-08T04:02:43;112.35;;;105.65;;
10269;SDS011;70826;50.930;5.334;2024-03-08T04:05:11;110.22;;;103.72;;
10269;SDS011;70826;50.930;5.334;2024-03-08T04:07:45;112.32;;;105.63;;
10269;SDS011;70826;50.930;5.334;2024-03-08T04:10:11;107.28;;;100.93;;
10269;SDS011;70826;50.930;5.334;2024-03-08T04:12:37;109.55;;;103.07;;
10269;SDS011;70826;50.930;5.334;2024-03-08T04:15:05;109.47;;;102.93;;
10269;SDS011;70826;50.930;5.334;2024-03-08T04:17:35;115.30;;;108.35;;
10269;SDS011;70826;50.930;5.334;2024-03-08T04:20:02;111.95;;;105.28;;
10269;SDS011;70826;50.930;5.334;2024-03-08T04:22:35;109.90;;;103.15;;
10269;SDS011;70826;50.930;5.334;2024-03-08T04:25:04;107.07;;;100.78;;
10269;SDS011;70826;50.930;5.334;2024-03-08T04:27:32;111.60;;;104.97;;
10269;SDS011;70826;50.930;5.334;2024-03-08T04:30:00;111.53;;;104.80;;
10269;SDS011;70826;50.930;5.334;2024-03-08T04:32:27;110.07;;;103.57;;
10269;SDS011;70826;50.930;5.334;2024-03-08T04:34:55;113.80;;;106.93;;
10269;SDS011;70826;50.930;5.334;2024-03-08T04:37:21;107.32;;;100.93;;
10269;SDS011;70826;50.930;5.334;2024-03-08T04:39:47;111.60;;;105.00;;
10269;SDS011;70826;50.930;5.334;2024-03-08T04:42:18;118.85;;;111.60;;
10269;SDS011;70826;50.930;5.334;2024-03-08T04:44:43;117.20;;;110.20;;
10269;SDS011;70826;50.930;5.334;2024-03-08T04:47:09;117.07;;;110.07;;
10269;SDS011;70826;50.930;5.334;2024-03-08T04:49:36;112.78;;;106.00;;
10269;SDS011;70826;50.930;5.334;2024-03-08T04:52:02;115.45;;;108.53;;
10269;SDS011;70826;50.930;5.334;2024-03-08T04:54:28;113.28;;;106.43;;
10269;SDS011;70826;50.930;5.334;2024-03-08T04:56:54;114.60;;;107.78;;
10269;SDS011;70826;50.930;5.334;2024-03-08T04:59:20;116.78;;;109.68;;
10269;SDS011;70826;50.930;5.334;2024-03-08T05:01:45;113.35;;;106.63;;
10269;SDS011;70826;50.930;5.334;2024-03-08T05:04:13;114.28;;;107.35;;
10269;SDS011;70826;50.930;5.334;2024-03-08T05:06:42;111.18;;;104.45;;
10269;SDS011;70826;50.930;5.334;2024-03-08T05:09:08;111.00;;;104.40;;
10269;SDS011;70826;50.930;5.334;2024-03-08T05:11:43;111.32;;;104.60;;
10269;SDS011;70826;50.930;5.334;2024-03-08T05:14:12;116.13;;;109.20;;
10269;SDS011;70826;50.930;5.334;2024-03-08T05:16:42;109.38;;;102.65;;
10269;SDS011;70826;50.930;5.334;2024-03-08T05:19:08;115.03;;;108.28;;
10269;SDS011;70826;50.930;5.334;2024-03-08T05:21:36;114.80;;;107.90;;
10269;SDS011;70826;50.930;5.334;2024-03-08T05:24:02;112.45;;;105.63;;
10269;SDS011;70826;50.930;5.334;2024-03-08T05:26:31;113.53;;;106.72;;
10269;SDS011;70826;50.930;5.334;2024-03-08T05:28:58;113.72;;;106.82;;
10269;SDS011;70826;50.930;5.334;2024-03-08T05:31:26;109.20;;;102.60;;
10269;SDS011;70826;50.930;5.334;2024-03-08T05:33:53;111.47;;;104.68;;
10269;SDS011;70826;50.930;5.334;2024-03-08T05:36:20;115.55;;;108.63;;
10269;SDS011;70826;50.930;5.334;2024-03-08T05:38:46;112.60;;;105.82;;
10269;SDS011;70826;50.930;5.334;2024-03-08T05:41:12;115.13;;;108.13;;
10269;SDS011;70826;50.930;5.334;2024-03-08T05:43:38;113.22;;;106.38;;
10269;SDS011;70826;50.930;5.334;2024-03-08T05:46:05;113.22;;;106.43;;
10269;SDS011;70826;50.930;5.334;2024-03-08T05:48:33;110.97;;;104.30;;
10269;SDS011;70826;50.930;5.334;2024-03-08T05:51:02;113.93;;;107.03;;
10269;SDS011;70826;50.930;5.334;2024-03-08T05:53:34;113.57;;;106.68;;
10269;SDS011;70826;50.930;5.334;2024-03-08T05:56:00;112.95;;;106.15;;
10269;SDS011;70826;50.930;5.334;2024-03-08T05:58:27;113.45;;;106.63;;
10269;SDS011;70826;50.930;5.334;2024-03-08T06:00:55;120.28;;;112.93;;
10269;SDS011;70826;50.930;5.334;2024-03-08T06:03:21;118.10;;;110.93;;
10269;SDS011;70826;50.930;5.334;2024-03-08T06:05:47;117.13;;;109.97;;
10269;SDS011;70826;50.930;5.334;2024-03-08T06:08:14;115.75;;;108.75;;
10269;SDS011;70826;50.930;5.334;2024-03-08T06:10:40;120.18;;;112.75;;
10269;SDS011;70826;50.930;5.334;2024-03-08T06:13:06;120.38;;;112.97;;
10269;SDS011;70826;50.930;5.334;2024-03-08T06:15:36;113.85;;;107.05;;
10269;SDS011;70826;50.930;5.334;2024-03-08T06:18:01;113.10;;;106.20;;
10269;SDS011;70826;50.930;5.334;2024-03-08T06:20:35;111.10;;;104.30;;
10269;SDS011;70826;50.930;5.334;2024-03-08T06:23:01;111.00;;;104.30;;
10269;SDS011;70826;50.930;5.334;2024-03-08T06:25:27;111.57;;;104.75;;
10269;SDS011;70826;50.930;5.334;2024-03-08T06:27:55;114.50;;;107.50;;
10269;SDS011;70826;50.930;5.334;2024-03-08T06:30:20;116.70;;;109.57;;
10269;SDS011;70826;50.930;5.334;2024-03-08T06:32:47;109.53;;;102.82;;
10269;SDS011;70826;50.930;5.334;2024-03-08T06:35:15;117.72;;;110.25;;
10269;SDS011;70826;50.930;5.334;2024-03-08T06:37:41;110.70;;;103.78;;
10269;SDS011;70826;50.930;5.334;2024-03-08T06:40:09;113.53;;;106.40;;
10269;SDS011;70826;50.930;5.334;2024-03-08T06:42:40;115.65;;;108.50;;
10269;SDS011;70826;50.930;5.334;2024-03-08T06:45:06;117.72;;;110.32;;
10269;SDS011;70826;50.930;5.334;2024-03-08T06:47:34;115.55;;;108.43;;
10269;SDS011;70826;50.930;5.334;2024-03-08T06:50:02;119.22;;;111.93;;
10269;SDS011;70826;50.930;5.334;2024-03-08T06:52:30;118.00;;;110.75;;
10269;SDS011;70826;50.930;5.334;2024-03-08T06:54:58;110.63;;;103.78;;
10269;SDS011;70826;50.930;5.334;2024-03-08T06:57:26;107.60;;;100.88;;
10269;SDS011;70826;50.930;5.334;2024-03-08T06:59:54;111.80;;;104.85;;
10269;SDS011;70826;50.930;5.334;2024-03-08T07:02:22;110.63;;;103.75;;
10269;SDS011;70826;50.930;5.334;2024-03-08T07:04:51;112.15;;;105.25;;
10269;SDS011;70826;50.930;5.334;2024-03-08T07:07:17;110.10;;;103.30;;
10269;SDS011;70826;50.930;5.334;2024-03-08T07:09:46;108.07;;;101.45;;
10269;SDS011;70826;50.930;5.334;2024-03-08T07:12:14;114.28;;;107.28;;
10269;SDS011;70826;50.930;5.334;2024-03-08T07:14:42;110.10;;;103.22;;
10269;SDS011;70826;50.930;5.334;2024-03-08T07:17:10;114.63;;;107.53;;
10269;SDS011;70826;50.930;5.334;2024-03-08T07:19:44;116.10;;;108.93;;
10269;SDS011;70826;50.930;5.334;2024-03-08T07:22:12;112.50;;;105.43;;
10269;SDS011;70826;50.930;5.334;2024-03-08T07:24:38;119.97;;;112.53;;
10269;SDS011;70826;50.930;5.334;2024-03-08T07:27:19;115.30;;;108.10;;
10269;SDS011;70826;50.930;5.334;2024-03-08T07:29:47;120.22;;;112.57;;
10269;SDS011;70826;50.930;5.334;2024-03-08T07:32:15;119.22;;;111.70;;
10269;SDS011;70826;50.930;5.334;2024-03-08T07:34:46;117.50;;;110.05;;
10269;SDS011;70826;50.930;5.334;2024-03-08T07:37:14;120.60;;;113.00;;
10269;SDS011;70826;50.930;5.334;2024-03-08T07:39:39;116.93;;;109.30;;
10269;SDS011;70826;50.930;5.334;2024-03-08T07:42:08;117.13;;;109.75;;
10269;SDS011;70826;50.930;5.334;2024-03-08T07:44:36;115.25;;;108.03;;
10269;SDS011;70826;50.930;5.334;2024-03-08T07:47:05;116.85;;;109.43;;
10269;SDS011;70826;50.930;5.334;2024-03-08T07:49:34;123.88;;;115.95;;
10269;SDS011;70826;50.930;5.334;2024-03-08T07:52:04;114.47;;;107.03;;
10269;SDS011;70826;50.930;5.334;2024-03-08T07:54:33;111.55;;;104.47;;
10269;SDS011;70826;50.930;5.334;2024-03-08T07:57:01;117.22;;;109.72;;
10269;SDS011;70826;50.930;5.334;2024-03-08T07:59:29;114.63;;;107.22;;
10269;SDS011;70826;50.930;5.334;2024-03-08T08:01:55;118.53;;;111.03;;
10269;SDS011;70826;50.930;5.334;2024-03-08T08:04:26;121.30;;;113.60;;
10269;SDS011;70826;50.930;5.334;2024-03-08T08:06:52;54.33;;;50.33;;
10269;SDS011;70826;50.930;5.334;2024-03-08T08:09:20;47.72;;;43.95;;
10269;SDS011;70826;50.930;5.334;2024-03-08T08:11:54;71.70;;;66.47;;
10269;SDS011;70826;50.930;5.334;2024-03-08T08:14:20;71.10;;;66.32;;
10269;SDS011;70826;50.930;5.334;2024-03-08T08:16:46;84.60;;;79.00;;
10269;SDS011;70826;50.930;5.334;2024-03-08T08:19:14;84.75;;;79.50;;
10269;SDS011;70826;50.930;5.334;2024-03-08T08:21:40;96.78;;;90.40;;
10269;SDS011;70826;50.930;5.334;2024-03-08T08:24:06;108.00;;;101.03;;
10269;SDS011;70826;50.930;5.334;2024-03-08T08:26:39;103.28;;;96.78;;
10269;SDS011;70826;50.930;5.334;2024-03-08T08:29:09;101.43;;;95.10;;
10269;SDS011;70826;50.930;5.334;2024-03-08T08:31:35;105.38;;;98.65;;
10269;SDS011;70826;50.930;5.334;2024-03-08T08:34:03;96.70;;;90.82;;
10269;SDS011;70826;50.930;5.334;2024-03-08T08:36:32;96.13;;;90.43;;
10269;SDS011;70826;50.930;5.334;2024-03-08T08:38:58;100.55;;;94.63;;
10269;SDS011;70826;50.930;5.334;2024-03-08T08:41:28;96.68;;;91.05;;
10269;SDS011;70826;50.930;5.334;2024-03-08T08:43:56;99.80;;;93.97;;
10269;SDS011;70826;50.930;5.334;2024-03-08T08:46:24;101.68;;;95.43;;
10269;SDS011;70826;50.930;5.334;2024-03-08T08:48:51;99.13;;;93.32;;
10269;SDS011;70826;50.930;5.334;2024-03-08T08:51:22;93.05;;;87.22;;
10269;SDS011;70826;50.930;5.334;2024-03-08T08:53:52;83.07;;;77.63;;
10269;SDS011;70826;50.930;5.334;2024-03-08T08:56:20;52.35;;;48.88;;
10269;SDS011;70826;50.930;5.334;2024-03-08T08:58:47;35.63;;;33.13;;
10269;SDS011;70826;50.930;5.334;2024-03-08T09:01:15;30.55;;;28.15;;
10269;SDS011;70826;50.930;5.334;2024-03-08T09:03:45;22.60;;;20.98;;
10269;SDS011;70826;50.930;5.334;2024-03-08T09:06:19;18.95;;;17.58;;
10269;SDS011;70826;50.930;5.334;2024-03-08T09:08:47;27.38;;;24.88;;
10269;SDS011;70826;50.930;5.334;2024-03-08T09:11:13;20.23;;;18.40;;
10269;SDS011;70826;50.930;5.334;2024-03-08T09:13:40;16.52;;;15.15;;
10269;SDS011;70826;50.930;5.334;2024-03-08T09:16:09;11.20;;;10.20;;
10269;SDS011;70826;50.930;5.334;2024-03-08T09:18:39;9.75;;;8.93;;
10269;SDS011;70826;50.930;5.334;2024-03-08T09:21:10;8.50;;;7.70;;
10269;SDS011;70826;50.930;5.334;2024-03-08T09:23:36;8.50;;;7.53;;
10269;SDS011;70826;50.930;5.334;2024-03-08T09:26:04;9.02;;;8.18;;
10269;SDS011;70826;50.930;5.334;2024-03-08T09:28:32;16.65;;;15.55;;
10269;SDS011;70826;50.930;5.334;2024-03-08T09:31:00;20.90;;;19.58;;
10269;SDS011;70826;50.930;5.334;2024-03-08T09:33:30;17.83;;;16.45;;
10269;SDS011;70826;50.930;5.334;2024-03-08T09:35:56;19.45;;;18.10;;
10269;SDS011;70826;50.930;5.334;2024-03-08T09:38:24;30.17;;;28.02;;
10269;SDS011;70826;50.930;5.334;2024-03-08T09:40:52;46.58;;;43.42;;
10269;SDS011;70826;50.930;5.334;2024-03-08T09:43:18;39.97;;;37.35;;
10269;SDS011;70826;50.930;5.334;2024-03-08T09:45:47;20.27;;;18.92;;
10269;SDS011;70826;50.930;5.334;2024-03-08T09:48:20;13.95;;;12.98;;
10269;SDS011;70826;50.930;5.334;2024-03-08T09:50:48;14.07;;;13.23;;
10269;SDS011;70826;50.930;5.334;2024-03-08T09:53:20;16.65;;;15.65;;
10269;SDS011;70826;50.930;5.334;2024-03-08T09:55:47;18.50;;;17.35;;
10269;SDS011;70826;50.930;5.334;2024-03-08T09:58:17;21.77;;;20.27;;
10269;SDS011;70826;50.930;5.334;2024-03-08T10:01:01;23.85;;;22.35;;
10269;SDS011;70826;50.930;5.334;2024-03-08T10:03:31;24.85;;;23.02;;
10269;SDS011;70826;50.930;5.334;2024-03-08T10:05:59;28.35;;;26.75;;
10269;SDS011;70826;50.930;5.334;2024-03-08T10:08:26;30.30;;;28.55;;
10269;SDS011;70826;50.930;5.334;2024-03-08T10:11:10;29.35;;;27.70;;
10269;SDS011;70826;50.930;5.334;2024-03-08T10:13:40;32.38;;;30.45;;
10269;SDS011;70826;50.930;5.334;2024-03-08T10:16:12;31.15;;;29.40;;
10269;SDS011;70826;50.930;5.334;2024-03-08T10:18:42;32.25;;;30.13;;
10269;SDS011;70826;50.930;5.334;2024-03-08T10:21:09;30.33;;;28.58;;
10269;SDS011;70826;50.930;5.334;2024-03-08T10:23:42;29.73;;;28.05;;
10269;SDS011;70826;50.930;5.334;2024-03-08T10:28:39;33.67;;;31.77;;
10269;SDS011;70826;50.930;5.334;2024-03-08T10:31:08;41.50;;;38.90;;
10269;SDS011;70826;50.930;5.334;2024-03-08T10:33:34;32.08;;;30.17;;
10269;SDS011;70826;50.930;5.334;2024-03-08T10:36:00;23.88;;;22.50;;
10269;SDS011;70826;50.930;5.334;2024-03-08T10:38:26;19.52;;;18.30;;
10269;SDS011;70826;50.930;5.334;2024-03-08T10:40:57;29.65;;;27.92;;
10269;SDS011;70826;50.930;5.334;2024-03-08T10:43:25;34.78;;;32.45;;
10269;SDS011;70826;50.930;5.334;2024-03-08T10:48:58;36.03;;;33.83;;
10269;SDS011;70826;50.930;5.334;2024-03-08T10:51:30;34.97;;;32.97;;
10269;SDS011;70826;50.930;5.334;2024-03-08T10:53:57;39.83;;;37.40;;
10269;SDS011;70826;50.930;5.334;2024-03-08T10:56:32;39.55;;;37.08;;
10269;SDS011;70826;50.930;5.334;2024-03-08T10:58:57;40.40;;;37.97;;
10269;SDS011;70826;50.930;5.334;2024-03-08T11:01:23;39.58;;;37.28;;
10269;SDS011;70826;50.930;5.334;2024-03-08T11:03:57;39.72;;;37.45;;
10269;SDS011;70826;50.930;5.334;2024-03-08T11:08:55;35.58;;;33.38;;
10269;SDS011;70826;50.930;5.334;2024-03-08T11:13:55;33.05;;;31.10;;
10269;SDS011;70826;50.930;5.334;2024-03-08T11:18:59;29.38;;;27.58;;
10269;SDS011;70826;50.930;5.334;2024-03-08T11:21:32;24.35;;;22.80;;
10269;SDS011;70826;50.930;5.334;2024-03-08T11:24:01;24.08;;;22.52;;
10269;SDS011;70826;50.930;5.334;2024-03-08T11:26:36;22.30;;;20.90;;
10269;SDS011;70826;50.930;5.334;2024-03-08T11:34:41;18.40;;;17.20;;
10269;SDS011;70826;50.930;5.334;2024-03-08T11:37:12;17.75;;;16.58;;
10269;SDS011;70826;50.930;5.334;2024-03-08T11:39:40;16.58;;;15.40;;
10269;SDS011;70826;50.930;5.334;2024-03-08T11:42:14;16.85;;;15.65;;
10269;SDS011;70826;50.930;5.334;2024-03-08T11:44:43;17.27;;;16.05;;
10269;SDS011;70826;50.930;5.334;2024-03-08T11:47:12;17.60;;;16.38;;
10269;SDS011;70826;50.930;5.334;2024-03-08T11:49:43;19.50;;;18.10;;
10269;SDS011;70826;50.930;5.334;2024-03-08T11:52:17;16.52;;;15.40;;
10269;SDS011;70826;50.930;5.334;2024-03-08T11:54:53;19.80;;;18.38;;
10269;SDS011;70826;50.930;5.334;2024-03-08T11:57:22;17.83;;;16.63;;
10269;SDS011;70826;50.930;5.334;2024-03-08T11:59:51;15.25;;;14.05;;
10269;SDS011;70826;50.930;5.334;2024-03-08T12:02:17;14.32;;;13.32;;
10269;SDS011;70826;50.930;5.334;2024-03-08T12:04:46;18.88;;;17.45;;
10269;SDS011;70826;50.930;5.334;2024-03-08T12:07:12;17.50;;;16.25;;
10269;SDS011;70826;50.930;5.334;2024-03-08T12:09:42;18.55;;;17.20;;
10269;SDS011;70826;50.930;5.334;2024-03-08T12:12:11;20.52;;;19.02;;
10269;SDS011;70826;50.930;5.334;2024-03-08T12:14:37;22.67;;;21.05;;
10269;SDS011;70826;50.930;5.334;2024-03-08T12:17:04;23.42;;;21.73;;
10269;SDS011;70826;50.930;5.334;2024-03-08T12:19:31;27.13;;;24.98;;
10269;SDS011;70826;50.930;5.334;2024-03-08T12:22:06;27.55;;;25.42;;
10269;SDS011;70826;50.930;5.334;2024-03-08T12:24:35;35.22;;;32.65;;
10269;SDS011;70826;50.930;5.334;2024-03-08T12:27:13;36.47;;;33.85;;
10269;SDS011;70826;50.930;5.334;2024-03-08T12:29:47;41.00;;;38.03;;
10269;SDS011;70826;50.930;5.334;2024-03-08T12:32:15;48.22;;;44.75;;
10269;SDS011;70826;50.930;5.334;2024-03-08T12:34:43;58.42;;;54.22;;
10269;SDS011;70826;50.930;5.334;2024-03-08T12:37:18;59.47;;;55.30;;
10269;SDS011;70826;50.930;5.334;2024-03-08T12:39:46;62.88;;;58.47;;
10269;SDS011;70826;50.930;5.334;2024-03-08T12:42:16;76.35;;;70.85;;
10269;SDS011;70826;50.930;5.334;2024-03-08T12:44:44;84.97;;;79.10;;
10269;SDS011;70826;50.930;5.334;2024-03-08T12:47:11;90.07;;;83.85;;
10269;SDS011;70826;50.930;5.334;2024-03-08T12:49:37;90.78;;;84.57;;
10269;SDS011;70826;50.930;5.334;2024-03-08T12:52:08;100.50;;;93.53;;
10269;SDS011;70826;50.930;5.334;2024-03-08T12:54:35;99.47;;;92.63;;
10269;SDS011;70826;50.930;5.334;2024-03-08T12:57:01;102.68;;;95.70;;
10269;SDS011;70826;50.930;5.334;2024-03-08T12:59:32;97.40;;;90.78;;
10269;SDS011;70826;50.930;5.334;2024-03-08T13:02:01;95.25;;;88.57;;
10269;SDS011;70826;50.930;5.334;2024-03-08T13:04:33;96.75;;;89.88;;
10269;SDS011;70826;50.930;5.334;2024-03-08T13:06:58;94.60;;;87.93;;
10269;SDS011;70826;50.930;5.334;2024-03-08T13:09:24;110.63;;;102.63;;
10269;SDS011;70826;50.930;5.334;2024-03-08T13:11:52;104.95;;;97.55;;
10269;SDS011;70826;50.930;5.334;2024-03-08T13:14:22;112.78;;;104.63;;
10269;SDS011;70826;50.930;5.334;2024-03-08T13:16:52;111.25;;;103.28;;
10269;SDS011;70826;50.930;5.334;2024-03-08T13:19:22;101.10;;;93.78;;
10269;SDS011;70826;50.930;5.334;2024-03-08T13:21:51;118.22;;;109.68;;
10269;SDS011;70826;50.930;5.334;2024-03-08T13:24:18;119.35;;;110.80;;
10269;SDS011;70826;50.930;5.334;2024-03-08T13:26:52;108.85;;;101.07;;
10269;SDS011;70826;50.930;5.334;2024-03-08T13:29:20;120.30;;;111.70;;
10269;SDS011;70826;50.930;5.334;2024-03-08T13:31:46;114.30;;;106.10;;
10269;SDS011;70826;50.930;5.334;2024-03-08T13:34:16;111.43;;;103.38;;
10269;SDS011;70826;50.930;5.334;2024-03-08T13:36:53;106.22;;;98.45;;
10269;SDS011;70826;50.930;5.334;2024-03-08T13:39:24;108.43;;;100.75;;
10269;SDS011;70826;50.930;5.334;2024-03-08T13:41:59;115.18;;;106.63;;
10269;SDS011;70826;50.930;5.334;2024-03-08T13:44:32;125.60;;;116.53;;
10269;SDS011;70826;50.930;5.334;2024-03-08T13:46:58;126.47;;;117.43;;
10269;SDS011;70826;50.930;5.334;2024-03-08T13:49:29;127.15;;;117.95;;
10269;SDS011;70826;50.930;5.334;2024-03-08T13:51:57;135.20;;;125.25;;
10269;SDS011;70826;50.930;5.334;2024-03-08T13:54:24;145.50;;;135.18;;
10269;SDS011;70826;50.930;5.334;2024-03-08T13:56:52;136.85;;;127.25;;
10269;SDS011;70826;50.930;5.334;2024-03-08T13:59:19;138.57;;;128.60;;
10269;SDS011;70826;50.930;5.334;2024-03-08T14:01:48;154.13;;;143.20;;
10269;SDS011;70826;50.930;5.334;2024-03-08T14:04:16;145.23;;;135.00;;
10269;SDS011;70826;50.930;5.334;2024-03-08T14:06:42;159.85;;;148.63;;
10269;SDS011;70826;50.930;5.334;2024-03-08T14:09:10;162.52;;;151.18;;
10269;SDS011;70826;50.930;5.334;2024-03-08T14:11:44;147.77;;;137.40;;
10269;SDS011;70826;50.930;5.334;2024-03-08T14:14:12;163.10;;;151.63;;
10269;SDS011;70826;50.930;5.334;2024-03-08T14:16:45;152.07;;;141.50;;
10269;SDS011;70826;50.930;5.334;2024-03-08T14:19:13;153.52;;;142.85;;
10269;SDS011;70826;50.930;5.334;2024-03-08T14:21:40;160.45;;;149.32;;
10269;SDS011;70826;50.930;5.334;2024-03-08T14:24:07;161.73;;;150.48;;
10269;SDS011;70826;50.930;5.334;2024-03-08T14:26:35;169.13;;;157.43;;
10269;SDS011;70826;50.930;5.334;2024-03-08T14:29:04;156.15;;;145.20;;
10269;SDS011;70826;50.930;5.334;2024-03-08T14:31:30;167.48;;;156.05;;